COOK1: Arkansas River Nr Coolidge, KS

Data processed at Fri Mar 09 2018 23:31


All information presented herein is the property of the government of the United States of America and may be revised or deleted at any time without prior notice.
Dissemination of this information without the expressed written consent of the Public Affairs Office, Tulsa District U.S. Army Corps of Engineers is strictly prohibited.
These data are gathered electronically and, as presented, have not undergone any form of quality control. These data are not guaranteed to be valid or correct.
Go to home page.
Go to station list.

Upstream stations:

Downstream station:
Previous Day
Next Day
Current Day
    
SHEF ID:       COOK1     ARKANSAS R NR COOLIDGE, KS
STATION TYPE:  

               PRECIP     STAGE  STAGE(2)  RIV-FLOW  WTR-TEMP   CONDUCT  BAT-LOAD
                   in        ft        ft       cfs         F   umho/cm      volt
              Ccp-Rev   Ccp-Rev   Ccp-Rev   Ccp-Rev   Ccp-Rev   Ccp-Rev   Ccp-Rev
(US/Central)
03/07 00:00      0.00      3.04      2.96       121     43.20      6048     12.83
03/07 01:00      0.00      3.03      2.99       119     42.22      6113     12.77
03/07 02:00      0.00      3.03      2.98       119     41.40      6138     12.54
03/07 03:00      0.00      3.03      3.00       119     40.69      6136     12.71
03/07 04:00      0.00      3.05      3.01       122     40.05      6140     12.65
03/07 05:00      0.00      3.04      2.97       121     39.49      6140     12.65
03/07 06:00      0.00      3.05      3.01       122     38.86      6138     12.60
03/07 07:00      0.00      3.02      2.99       118     38.23      6134     12.60
03/07 08:00      0.00      3.04      2.98       121     37.67      6133     12.60
03/07 09:00      0.00      3.04      2.98       121     37.81      6125     13.12
03/07 10:00      0.00      3.04      3.02       121     39.02      6097     13.65
03/07 11:00      0.00      3.04      3.01       121     41.00      6043     13.71
03/07 12:00      0.00      3.03      3.03       119     43.50      5992     13.83
03/07 13:00      0.00      3.04      3.03       121     46.31      5954     13.83
03/07 14:00      0.00      3.04      3.03       121     48.97      5918     13.83
03/07 15:00      0.00      3.03      3.02       119     51.10      5893     13.83
03/07 16:00      0.00      3.04      3.04       121     52.50      5873     13.65
03/07 17:00      0.00      3.04      3.03       121     52.93      5852     13.48
03/07 18:00      0.00      3.03      3.02       119     52.41      5830     13.30
03/07 19:00      0.00      3.03      3.00       119     51.53      5888     13.18
03/07 20:00      0.00      3.03      2.98       119     50.59      5882     13.07
03/07 21:00      0.00      3.03      3.00       119     49.57      5875     13.00
03/07 22:00      0.00      3.02      3.00       118     48.49      5886     12.95
03/07 23:00      0.00      3.03      3.01       119     47.41      5877     12.89